Latest Weather Observations for Emerald

IDQ60801

Issued at 11:35 pm EST Wednesday 17 September 2014 (issued every 30 minutes, with the page automatically refreshed every 10 minutes)

About weather observations | Map of weather stations | Latest weather observations for QLD | Other Formats
Station Details ID: 035264 Name: EMERALD AIRPORT Lat: -23.57 Lon: 148.18 Height: 189.4 m
Data from the previous 72 hours. | See also: Recent months at Emerald
Date/Time
EST
Temp
°C
App
Temp
°C
Dew
Point
Rel
Hum
%
Delta-T
°C
Wind Press
QNH
hPa
Press
MSL
hPa
Rain
since 9 am
mm
Dir
 
Spd
km/h
Gust
km/h
Spd
kts
Gust
kts
17/11:30pm 20.8 16.4 2.6 30 8.6 SW 15 19 8 10 1016.5 - 0.0
17/11:00pm 21.9 16.5 1.0 25 9.6 SW 19 24 10 13 1016.4 - 0.0
17/10:30pm 21.8 16.5 3.0 29 9.0 SW 20 22 11 12 1016.4 - 0.0
17/10:00pm 21.6 16.8 4.7 33 8.4 SW 19 22 10 12 1016.5 - 0.0
17/09:30pm 21.2 16.9 1.0 26 9.3 WSW 13 15 7 8 1016.4 - 0.0
17/09:00pm 22.1 18.3 1.7 26 9.6 WSW 11 13 6 7 1016.2 1015.7 0.0
17/08:30pm 23.2 19.6 0.3 22 10.5 W 9 13 5 7 1015.8 - 0.0
17/08:00pm 23.3 19.7 0.4 22 10.6 WSW 9 11 5 6 1015.4 - 0.0
17/07:30pm 24.9 20.9 -2.6 16 12.2 W 9 11 5 6 1015.1 - 0.0
17/07:00pm 25.2 20.9 -1.6 17 12.1 WSW 11 15 6 8 1014.7 - 0.0
17/06:30pm 26.5 22.1 -2.2 15 12.9 WSW 11 15 6 8 1014.3 - 0.0
17/06:00pm 27.7 22.8 -3.2 13 13.8 WSW 13 22 7 12 1013.9 1013.3 0.0
17/05:30pm 29.7 23.3 -6.5 9 15.5 WSW 19 24 10 13 1013.5 - 0.0
17/05:00pm 30.6 24.3 -5.8 9 15.9 WSW 19 26 10 14 1013.2 - 0.0
17/04:30pm 31.3 24.3 -6.8 8 16.5 WSW 22 32 12 17 1013.0 - 0.0
17/04:00pm 31.3 24.0 -6.8 8 16.5 SW 24 39 13 21 1013.1 - 0.0
17/03:30pm 31.7 23.1 -8.3 7 16.9 W 30 43 16 23 1013.2 - 0.0
17/03:00pm 31.5 24.2 -6.7 8 16.6 W 24 33 13 18 1013.2 1012.7 0.0
17/02:30pm 31.4 25.0 -5.2 9 16.3 WSW 20 32 11 17 1013.5 - 0.0
17/02:00pm 31.1 25.4 -4.1 10 15.9 SSW 17 24 9 13 1014.0 - 0.0
17/01:30pm 30.2 23.3 -6.1 9 15.8 SSW 22 33 12 18 1014.4 - 0.0
17/01:00pm 29.9 24.3 -6.4 9 15.6 SW 15 32 8 17 1015.0 - 0.0
17/12:30pm 29.2 24.9 0.8 16 13.8 WSW 13 24 7 13 1015.5 - 0.0
17/12:00pm 28.5 24.0 1.9 18 13.1 WSW 15 24 8 13 1016.0 1015.5 0.0
17/11:30am 28.9 25.1 3.7 20 12.8 S 13 20 7 11 1016.4 - 0.0
17/11:00am 27.6 24.1 3.3 21 12.2 W 11 19 6 10 1016.9 - 0.0
17/10:30am 27.4 23.7 4.5 23 11.7 WSW 13 20 7 11 1017.5 - 0.0
17/10:00am 26.5 22.4 6.0 27 10.7 WSW 17 20 9 11 1017.7 - 0.0
17/09:30am 25.6 22.5 7.2 31 9.8 W 13 20 7 11 1018.0 - 0.0
17/09:00am 24.6 20.4 7.3 33 9.1 W 19 26 10 14 1018.1 1017.6 0.0
17/08:30am 23.3 20.1 8.6 39 7.9 WNW 15 19 8 10 1017.8 - 0.0
17/08:00am 21.1 18.2 9.7 48 6.2 WNW 15 20 8 11 1017.7 - 0.0
17/07:30am 19.5 16.8 8.8 50 5.6 NW 13 17 7 9 1017.5 - 0.0
17/07:00am 18.3 16.3 8.6 53 5.1 N 9 15 5 8 1017.0 - 0.0
17/06:30am 16.7 14.1 7.9 56 4.5 N 11 13 6 7 1016.6 - 0.0
17/06:00am 17.0 14.3 7.4 53 4.8 NNW 11 13 6 7 1016.0 1015.5 0.0
17/05:30am 16.6 13.8 7.0 53 4.8 N 11 13 6 7 1015.8 - 0.0
17/05:00am 18.2 15.3 6.7 47 5.8 NW 11 13 6 7 1015.6 - 0.0
17/04:30am 15.9 15.2 7.1 56 4.4 CALM 0 0 0 0 1015.4 - 0.0
17/04:00am 18.6 16.3 5.8 43 6.3 NW 7 9 4 5 1015.2 - 0.0
17/03:30am 18.9 15.9 6.1 43 6.4 NW 11 15 6 8 1015.4 - 0.0
17/03:00am 18.8 15.2 6.6 45 6.1 WSW 15 19 8 10 1015.4 1014.8 0.0
17/02:30am 18.0 14.2 7.4 50 5.4 SW 17 28 9 15 1015.7 - 0.0
17/02:00am 15.3 15.0 8.5 64 3.5 CALM 0 7 0 4 1014.4 - 0.0
17/01:30am 17.1 15.3 7.2 52 5.0 N 6 7 3 4 1014.6 - 0.0
17/01:00am 16.6 16.0 7.5 55 4.6 CALM 0 0 0 0 1014.8 - 0.0
17/12:30am 16.7 14.7 7.1 53 4.8 NNE 7 9 4 5 1014.9 - 0.0
17/12:00am 17.5 15.1 7.0 50 5.3 N 9 9 5 5 1015.3 1014.7 0.0
 
Date/Time
EST
Temp
°C
App
Temp
°C
Dew
Point
Rel
Hum
%
Delta-T
°C
Wind Press
QNH
hPa
Press
MSL
hPa
Rain
since 9 am
mm
Dir
 
Spd
km/h
Gust
km/h
Spd
kts
Gust
kts
16/11:30pm 19.2 17.1 6.7 44 6.3 N 7 9 4 5 1015.4 - 0.0
16/11:00pm 19.6 16.4 7.0 44 6.4 N 13 15 7 8 1015.2 - 0.0
16/10:30pm 20.3 17.0 6.6 41 7.0 N 13 17 7 9 1015.1 - 0.0
16/10:00pm 20.6 18.2 7.2 42 6.9 N 9 15 5 8 1015.3 - 0.0
16/09:30pm 21.2 18.4 7.1 40 7.3 N 11 13 6 7 1015.2 - 0.0
16/09:00pm 21.7 18.8 6.4 37 7.8 NNE 11 13 6 7 1015.2 1014.6 0.0
16/08:30pm 22.3 19.5 6.9 37 8.0 NE 11 13 6 7 1015.1 - 0.0
16/08:00pm 22.5 19.6 6.7 36 8.2 NNE 11 13 6 7 1014.9 - 0.0
16/07:30pm 23.3 21.3 6.1 33 8.8 NNE 6 9 3 5 1014.6 - 0.0
16/07:00pm 23.8 23.0 6.6 33 8.9 CALM 0 2 0 1 1014.4 - 0.0
16/06:30pm 26.0 23.8 6.1 28 10.4 NNE 7 9 4 5 1013.8 - 0.0
16/06:00pm 26.7 24.5 6.2 27 10.8 NNE 7 7 4 4 1013.5 1013.0 0.0
16/05:30pm 27.6 25.3 5.8 25 11.4 NNE 7 7 4 4 1013.2 - 0.0
16/05:00pm 28.4 26.0 5.3 23 12.1 NNW 7 11 4 6 1013.0 - 0.0
16/04:30pm 29.7 27.7 4.4 20 13.1 NW 4 9 2 5 1013.0 - 0.0
16/04:00pm 29.9 27.1 5.2 21 13.0 NNE 9 17 5 9 1013.1 - 0.0
16/03:30pm 29.7 26.6 5.7 22 12.7 NNE 11 15 6 8 1013.2 - 0.0
16/03:00pm 29.1 25.4 4.6 21 12.7 ESE 13 20 7 11 1013.4 1012.9 0.0
16/02:30pm 29.4 26.8 6.1 23 12.4 E 9 15 5 8 1013.9 - 0.0
16/02:00pm 28.9 26.0 6.3 24 12.0 WNW 11 19 6 10 1014.4 - 0.0
16/01:30pm 28.8 26.1 5.6 23 12.2 NNE 9 22 5 12 1014.9 - 0.0
16/01:00pm 28.2 25.9 7.4 27 11.3 W 9 17 5 9 1015.5 - 0.0
16/12:30pm 27.8 25.0 7.1 27 11.1 NE 11 20 6 11 1016.1 - 0.0
16/12:00pm 27.5 25.2 7.4 28 10.8 N 9 19 5 10 1016.6 1016.1 0.0
16/11:30am 26.1 23.9 7.7 31 9.9 N 9 20 5 11 1017.3 - 0.0
16/11:00am 26.0 23.0 7.6 31 9.9 N 13 20 7 11 1017.7 - 0.0
16/10:30am 24.5 21.4 7.2 33 9.1 N 13 20 7 11 1018.3 - 0.0
16/10:00am 23.3 21.0 7.4 36 8.4 N 9 15 5 8 1018.7 - 0.0
16/09:30am 21.7 19.7 8.6 43 7.0 NNW 9 13 5 7 1019.0 - 0.0
16/09:00am 20.3 17.9 8.6 47 6.2 NNW 11 15 6 8 1019.1 1018.6 0.0
16/08:30am 19.2 17.1 8.2 49 5.7 N 9 13 5 7 1019.0 - 0.0
16/08:00am 17.5 15.7 8.1 54 4.8 N 7 11 4 6 1018.9 - 0.0
16/07:30am 15.7 13.8 9.1 65 3.4 NNE 9 13 5 7 1018.4 - 0.0
16/07:00am 14.3 13.5 11.6 84 1.5 ENE 7 9 4 5 1018.2 - 0.0
16/06:30am 12.0 12.2 10.6 91 0.7 CALM 0 0 0 0 1017.9 - 0.0
16/06:00am 12.0 11.9 10.7 92 0.7 E 2 7 1 4 1017.4 1016.9 0.0
16/05:30am 11.8 10.7 10.5 92 0.7 E 7 7 4 4 1017.3 - 0.0
16/05:00am 12.3 11.7 10.5 89 0.9 ENE 4 9 2 5 1017.0 - 0.0
16/04:30am 12.6 12.7 10.3 86 1.2 CALM 0 0 0 0 1016.9 - 0.0
16/04:00am 12.6 12.8 10.5 87 1.1 CALM 0 0 0 0 1016.6 - 0.0
16/03:30am 13.6 13.1 10.9 84 1.4 ENE 4 6 2 3 1016.2 - 0.0
16/03:00am 14.1 13.4 11.3 83 1.5 ENE 6 7 3 4 1016.2 1015.7 0.0
16/02:30am 13.9 12.9 11.1 83 1.5 ENE 7 7 4 4 1016.2 - 0.0
16/02:00am 14.6 14.8 10.4 76 2.2 CALM 0 0 0 0 1016.4 - 0.0
16/01:30am 15.8 16.0 10.6 71 2.8 CALM 0 0 0 0 1016.6 - 0.0
16/01:00am 15.8 15.8 9.9 68 3.1 CALM 0 0 0 0 1016.7 - 0.0
16/12:30am 16.2 15.8 9.6 65 3.5 N 2 6 1 3 1016.8 - 0.0
16/12:00am 17.0 15.7 9.2 60 4.1 N 6 7 3 4 1016.8 1016.3 0.0
 
Date/Time
EST
Temp
°C
App
Temp
°C
Dew
Point
Rel
Hum
%
Delta-T
°C
Wind Press
QNH
hPa
Press
MSL
hPa
Rain
since 9 am
mm
Dir
 
Spd
km/h
Gust
km/h
Spd
kts
Gust
kts
15/11:30pm 17.0 14.8 9.2 60 4.1 NNE 11 13 6 7 1016.8 - 0.0
15/11:00pm 17.5 15.6 8.9 57 4.5 NNE 9 11 5 6 1016.7 - 0.0
15/10:30pm 18.3 16.3 8.6 53 5.1 NE 9 13 5 7 1016.8 - 0.0
15/10:00pm 18.4 18.6 10.5 60 4.3 CALM 0 0 0 0 1016.8 - 0.0
15/09:30pm 20.3 18.3 7.3 43 6.7 N 7 9 4 5 1016.8 - 0.0
15/09:00pm 20.4 18.3 8.1 45 6.4 N 9 11 5 6 1016.6 1016.1 0.0
15/08:30pm 20.4 18.9 9.0 48 6.1 NNE 7 9 4 5 1016.4 - 0.0
15/08:00pm 21.0 19.2 9.6 48 6.2 NNE 9 9 5 5 1016.2 - 0.0
15/07:30pm 20.9 19.4 10.4 51 5.8 ENE 9 11 5 6 1016.0 - 0.0
15/07:00pm 21.7 20.2 10.5 49 6.2 ENE 9 15 5 8 1015.7 - 0.0
15/06:30pm 23.7 22.0 8.2 37 8.3 NNE 7 9 4 5 1015.5 - 0.0
15/06:00pm 24.8 22.8 7.0 32 9.4 ENE 7 7 4 4 1015.5 1014.9 0.0
15/05:30pm 25.7 23.4 7.3 31 9.8 ENE 9 13 5 7 1015.4 - 0.0
15/05:00pm 26.5 24.5 7.0 29 10.4 ENE 7 13 4 7 1015.2 - 0.0
15/04:30pm 26.4 22.9 7.4 30 10.2 E 15 20 8 11 1015.0 - 0.0
15/04:00pm 26.2 23.3 6.3 28 10.4 ESE 11 17 6 9 1014.9 - 0.0
15/03:30pm 27.6 25.7 6.9 27 11.1 SSW 6 11 3 6 1014.9 - 0.0
15/03:00pm 27.5 24.3 6.8 27 11.0 ESE 13 20 7 11 1015.2 1014.6 0.0
15/02:30pm 27.1 24.6 6.5 27 10.9 ESE 9 17 5 9 1015.5 - 0.0
15/02:00pm 27.8 25.5 7.6 28 10.9 NE 9 17 5 9 1015.8 - 0.0
15/01:30pm 26.9 22.5 7.4 29 10.5 E 20 24 11 13 1016.1 - 0.0
15/01:00pm 25.8 23.8 8.8 34 9.3 N 9 15 5 8 1016.5 - 0.0
15/12:30pm 25.5 23.7 9.3 36 8.9 SSE 9 19 5 10 1017.2 - 0.0
15/12:00pm 25.6 23.4 12.1 43 7.8 ENE 15 22 8 12 1017.8 1017.3 0.0
15/11:30am 24.7 23.5 11.6 44 7.5 N 9 19 5 10 1018.3 - 0.0
15/11:00am 23.9 22.2 11.2 44 7.2 N 11 17 6 9 1018.8 - 0.0
15/10:30am 22.9 22.4 12.5 52 6.0 N 7 11 4 6 1019.4 - 0.0
15/10:00am 22.5 21.6 13.8 58 5.1 NE 11 17 6 9 1019.7 - 0.0
15/09:30am 21.0 20.5 13.7 63 4.2 NE 9 19 5 10 1019.9 - 0.0
15/09:00am 20.3 19.4 13.7 66 3.8 NE 11 17 6 9 1020.2 1019.6 0.2
15/08:30am 19.2 18.6 15.7 80 2.1 ENE 13 19 7 10 1020.2 - 0.2
15/08:00am 17.7 17.3 15.3 86 1.4 ENE 11 13 6 7 1020.3 - 0.2
15/07:30am 16.5 17.0 15.0 91 0.9 ENE 6 7 3 4 1020.1 - 0.2
15/07:00am 14.8 15.0 14.3 97 0.3 SE 6 7 3 4 1019.9 - 0.2
15/06:30am 13.0 12.6 12.5 97 0.3 SSE 6 7 3 4 1019.6 - 0.2
15/06:00am 13.3 14.2 12.8 97 0.3 CALM 0 0 0 0 1019.5 1018.9 0.2
15/05:30am 13.2 12.7 12.7 97 0.3 SE 7 11 4 6 1019.4 - 0.2
15/05:00am 12.9 12.5 12.3 96 0.3 SSE 6 7 3 4 1018.9 - 0.2
15/04:30am 13.4 13.9 12.8 96 0.3 NW 2 7 1 4 1018.8 - 0.2
15/04:00am 13.3 14.1 12.4 94 0.5 CALM 0 0 0 0 1018.6 - 0.2
15/03:30am 14.0 14.8 12.7 92 0.7 CALM 0 0 0 0 1018.6 - 0.2
15/03:00am 14.6 15.5 13.0 90 0.9 CALM 0 0 0 0 1018.5 1018.0 0.2
15/02:30am 15.5 16.4 12.8 84 1.5 CALM 0 0 0 0 1018.8 - 0.2
15/02:00am 15.7 15.6 13.2 85 1.4 NNE 6 7 3 4 1018.9 - 0.2
15/01:30am 15.7 15.3 13.0 84 1.5 NNE 7 9 4 5 1018.9 - 0.2
15/01:00am 16.0 15.2 12.9 82 1.7 NE 9 11 5 6 1019.0 - 0.2
15/12:30am 16.3 15.2 13.0 81 1.9 ENE 11 13 6 7 1019.1 - 0.2
15/12:00am 16.6 15.3 12.6 77 2.2 NE 11 13 6 7 1019.1 1018.6 0.2

Other Formats:

Comma delimited format used in spreadsheet applications
http://www.bom.gov.au/fwo/IDQ60801/IDQ60801.94363.axf

JavaScript Object Notation format (JSON) in row-major order
http://www.bom.gov.au/fwo/IDQ60801/IDQ60801.94363.json